Time;durP1;ratioP1;P1;durP2;ratioP2;P2;SDS_P1;SDS_P2;PMS_P1;PMS_P2;Temp;Humidity;BMP_temperature;BMP_pressure;BME280_temperature;BME280_humidity;BME280_pressure;Samples;Min_cycle;Max_cycle;Signal;HPM_P1;HPM_P2
2021/05/07 00:01:06;;;;;;;5.25;2.55;;;;;;;11.91;49.74;98050.63;263085;1100;101124;-76
2021/05/07 00:06:11;;;;;;;5.03;2.40;;;;;;;11.76;50.69;98046.55;262941;1104;114432;-79
2021/05/07 00:11:17;;;;;;;5.40;2.50;;;;;;;11.59;51.23;98035.46;262579;1097;114650;-78
2021/05/07 00:16:19;;;;;;;3.15;2.20;;;;;;;11.51;52.25;98029.06;263095;1104;114882;-78
2021/05/07 00:21:24;;;;;;;7.20;2.60;;;;;;;11.46;53.05;98036.59;261705;1100;114473;-78
2021/05/07 00:26:26;;;;;;;4.80;2.55;;;;;;;11.39;53.60;98030.08;263259;1100;114410;-79
2021/05/07 00:31:29;;;;;;;4.65;2.80;;;;;;;11.32;54.02;98022.58;262863;1099;114651;-81
2021/05/07 00:36:33;;;;;;;8.18;2.98;;;;;;;11.27;54.70;98023.91;262504;1105;115760;-75
2021/05/07 00:41:35;;;;;;;4.58;2.80;;;;;;;11.26;54.90;98014.24;262677;1100;114718;-75
2021/05/07 00:46:39;;;;;;;7.53;2.88;;;;;;;11.27;55.56;98011.44;262907;1100;114714;-75
2021/05/07 00:51:43;;;;;;;5.63;2.68;;;;;;;11.26;55.92;97991.11;263132;1099;115101;-76
2021/05/07 00:56:47;;;;;;;6.13;3.17;;;;;;;11.29;55.95;98001.52;263022;1100;114402;-76
2021/05/07 01:01:50;;;;;;;5.63;3.35;;;;;;;11.30;56.30;97997.03;263034;1099;114835;-80
2021/05/07 01:06:53;;;;;;;7.58;2.88;;;;;;;11.31;56.59;97990.73;263067;1104;114841;-76
2021/05/07 01:11:56;;;;;;;4.68;3.08;;;;;;;11.27;56.66;97976.81;263193;1100;114779;-75
2021/05/07 01:16:59;;;;;;;5.03;2.70;;;;;;;11.28;56.73;97969.70;263075;1097;114831;-78
2021/05/07 01:22:02;;;;;;;5.85;2.93;;;;;;;11.20;56.71;97964.98;263506;1099;114597;-77
2021/05/07 01:27:05;;;;;;;5.93;2.78;;;;;;;11.19;57.13;97963.30;263284;1100;114521;-81
2021/05/07 01:32:08;;;;;;;5.53;2.93;;;;;;;11.18;56.82;97963.44;263441;1099;114612;-79
2021/05/07 01:37:11;;;;;;;8.70;3.80;;;;;;;11.15;57.24;97945.05;263444;1104;114756;-79
2021/05/07 01:42:14;;;;;;;8.85;3.98;;;;;;;11.12;57.52;97936.33;263242;1100;115164;-78
2021/05/07 01:47:18;;;;;;;8.38;4.18;;;;;;;11.10;57.54;97924.09;263155;1104;114859;-78
2021/05/07 01:52:21;;;;;;;12.35;5.63;;;;;;;11.11;57.80;97929.31;263061;1099;114941;-79
2021/05/07 01:57:32;;;;;;;12.98;5.65;;;;;;;11.10;57.95;97921.44;263489;1104;115357;-73
2021/05/07 02:02:35;;;;;;;14.85;6.58;;;;;;;11.09;58.53;97909.95;263416;1100;114867;-79
2021/05/07 02:07:38;;;;;;;13.18;6.50;;;;;;;11.11;58.08;97905.35;263002;1104;114828;-78
2021/05/07 02:12:41;;;;;;;15.40;6.20;;;;;;;11.09;57.73;97888.64;263151;1100;115026;-78
2021/05/07 02:17:45;;;;;;;12.50;6.53;;;;;;;11.08;57.76;97896.77;262233;1104;115061;-78
2021/05/07 02:22:51;;;;;;;15.18;6.28;;;;;;;11.07;58.21;97879.09;263315;1100;114933;-80
2021/05/07 02:27:56;;;;;;;14.40;6.53;;;;;;;11.03;58.03;97894.47;262800;1105;115316;-75
2021/05/07 02:33:01;;;;;;;10.95;6.20;;;;;;;10.99;58.17;97874.41;262687;1100;115139;-79
2021/05/07 02:38:05;;;;;;;12.63;5.93;;;;;;;10.96;58.66;97885.30;262948;1104;115340;-77
2021/05/07 02:43:10;;;;;;;7.75;4.28;;;;;;;10.96;58.16;97879.97;262750;1100;115170;-77
2021/05/07 02:48:16;;;;;;;6.80;3.87;;;;;;;11.01;58.64;97858.32;262998;1104;114626;-83
2021/05/07 02:53:19;;;;;;;4.98;3.53;;;;;;;11.10;58.72;97846.88;262856;1100;114690;-77
2021/05/07 02:58:23;;;;;;;6.05;3.90;;;;;;;11.17;58.37;97842.73;262899;1104;114969;-79
2021/05/07 03:03:27;;;;;;;6.90;3.53;;;;;;;11.15;58.57;97844.70;263258;1100;114820;-82
2021/05/07 03:08:30;;;;;;;5.63;3.20;;;;;;;11.10;58.53;97836.23;263197;1104;115210;-83
2021/05/07 03:13:33;;;;;;;5.28;3.28;;;;;;;11.09;58.88;97823.91;263420;1100;114754;-76
2021/05/07 03:18:36;;;;;;;8.18;3.40;;;;;;;11.07;58.65;97818.72;262948;1104;114709;-76
2021/05/07 03:23:39;;;;;;;6.75;3.78;;;;;;;11.05;58.59;97820.66;262799;1100;114920;-76
2021/05/07 03:28:41;;;;;;;4.38;3.20;;;;;;;11.04;58.84;97820.77;262776;1104;114612;-81
2021/05/07 03:33:45;;;;;;;7.35;3.40;;;;;;;11.00;58.29;97827.33;262506;1100;115308;-81
2021/05/07 03:38:48;;;;;;;6.18;3.38;;;;;;;10.95;58.75;97825.05;262529;1100;114767;-81
2021/05/07 03:43:51;;;;;;;4.80;3.53;;;;;;;10.91;58.45;97828.95;262355;1100;115107;-78
2021/05/07 03:48:55;;;;;;;6.73;3.70;;;;;;;10.88;59.08;97826.54;263093;1104;114736;-77
2021/05/07 03:53:57;;;;;;;4.28;3.23;;;;;;;10.91;59.50;97826.29;262872;1100;115325;-79
2021/05/07 03:59:00;;;;;;;5.75;3.88;;;;;;;10.97;59.29;97823.13;263185;1104;114669;-82
2021/05/07 04:04:06;;;;;;;7.75;4.25;;;;;;;11.04;59.73;97810.12;263154;1100;115378;-78
2021/05/07 04:09:14;;;;;;;9.08;4.90;;;;;;;11.09;59.63;97822.08;263226;1104;114821;-79
2021/05/07 04:14:23;;;;;;;9.57;6.60;;;;;;;11.10;59.53;97813.11;259231;1100;114999;-81
2021/05/07 04:19:25;;;;;;;8.48;5.15;;;;;;;11.11;59.72;97817.48;262928;1104;115084;-82
2021/05/07 04:24:28;;;;;;;11.10;5.50;;;;;;;11.11;59.94;97825.47;262561;1100;115199;-82
2021/05/07 04:29:32;;;;;;;9.73;5.55;;;;;;;11.09;59.79;97831.89;262565;1104;114831;-76
2021/05/07 04:34:35;;;;;;;8.13;5.08;;;;;;;11.05;60.13;97831.30;263206;1099;114814;-83
2021/05/07 04:39:38;;;;;;;11.38;5.23;;;;;;;11.08;59.68;97840.86;263514;1104;114838;-82
2021/05/07 04:44:44;;;;;;;5.75;3.25;;;;;;;11.08;59.66;97824.89;263373;1099;115121;-86
2021/05/07 04:49:47;;;;;;;5.78;3.40;;;;;;;11.18;60.20;97830.30;263002;1104;114905;-85
2021/05/07 04:54:50;;;;;;;5.85;3.00;;;;;;;11.32;60.38;97825.48;263130;1100;114840;-86
2021/05/07 04:59:52;;;;;;;4.53;2.95;;;;;;;11.48;60.17;97829.48;263116;1104;114790;-86
2021/05/07 05:04:57;;;;;;;4.15;2.68;;;;;;;11.61;59.65;97830.13;263444;1099;115106;-86
2021/05/07 05:10:00;;;;;;;4.18;2.10;;;;;;;11.70;58.80;97834.69;262928;1104;118649;-82
2021/05/07 05:15:03;;;;;;;5.70;2.20;;;;;;;11.78;59.29;97837.52;262944;1100;114752;-81
2021/05/07 05:20:08;;;;;;;6.05;2.38;;;;;;;11.86;59.26;97844.91;262670;1102;116037;-83
2021/05/07 05:25:12;;;;;;;4.83;2.55;;;;;;;11.93;58.96;97845.22;262596;1105;116127;-80
2021/05/07 05:30:15;;;;;;;3.95;2.40;;;;;;;11.99;58.26;97836.67;262508;1106;114768;-77
2021/05/07 05:35:18;;;;;;;7.60;2.65;;;;;;;12.05;58.75;97828.14;262456;1101;115228;-75
2021/05/07 05:40:21;;;;;;;6.75;2.25;;;;;;;12.14;58.78;97829.17;262716;1101;115095;-79
2021/05/07 05:45:25;;;;;;;5.83;2.63;;;;;;;12.21;58.39;97816.98;262620;1104;114896;-75
2021/05/07 05:50:28;;;;;;;4.23;2.65;;;;;;;12.26;58.39;97828.94;263008;1100;114684;-78
2021/05/07 05:55:31;;;;;;;3.87;2.47;;;;;;;12.33;58.16;97828.38;263361;1104;114727;-79
2021/05/07 06:00:35;;;;;;;5.68;2.80;;;;;;;12.40;57.32;97833.05;263012;1100;114702;-84
2021/05/07 06:05:39;;;;;;;6.23;2.73;;;;;;;12.53;57.89;97846.99;263239;1104;115236;-82
2021/05/07 06:10:42;;;;;;;4.75;2.50;;;;;;;12.65;57.61;97833.52;263415;1104;114740;-82
2021/05/07 06:15:45;;;;;;;6.60;2.78;;;;;;;12.75;56.97;97840.55;263180;1104;114907;-79
2021/05/07 06:20:47;;;;;;;5.08;2.55;;;;;;;12.86;57.25;97849.42;262993;1103;115029;-82
2021/05/07 06:25:51;;;;;;;6.18;2.65;;;;;;;13.00;57.49;97849.01;262871;1104;114868;-82
2021/05/07 06:30:58;;;;;;;7.63;2.30;;;;;;;13.09;57.10;97842.00;262617;1101;114969;-84
2021/05/07 06:36:00;;;;;;;6.60;2.08;;;;;;;13.19;56.85;97843.68;262771;1104;115184;-84
2021/05/07 06:41:03;;;;;;;8.40;2.43;;;;;;;13.28;56.71;97841.16;262662;1100;115532;-83
2021/05/07 06:46:06;;;;;;;4.28;2.70;;;;;;;13.38;56.21;97848.22;262522;1104;115327;-76
2021/05/07 06:51:09;;;;;;;5.88;2.58;;;;;;;13.47;56.44;97833.97;263111;1100;115576;-79
2021/05/07 06:56:20;;;;;;;3.68;2.10;;;;;;;13.56;56.01;97828.77;263047;1104;115418;-78
2021/05/07 07:01:25;;;;;;;5.95;1.83;;;;;;;13.63;55.90;97829.88;262966;1104;115413;-79
2021/05/07 07:06:28;;;;;;;3.38;1.75;;;;;;;13.64;55.47;97824.38;262779;1105;115340;-83
2021/05/07 07:11:31;;;;;;;2.18;1.40;;;;;;;13.71;55.67;97824.64;263039;1100;114801;-83
2021/05/07 07:16:34;;;;;;;3.88;1.83;;;;;;;13.79;54.75;97832.80;262999;1100;114812;-83
2021/05/07 07:21:38;;;;;;;5.23;1.73;;;;;;;13.89;55.55;97840.77;263008;1100;115200;-83
2021/05/07 07:26:41;;;;;;;2.58;1.40;;;;;;;13.82;55.43;97834.32;263064;1104;115118;-85
2021/05/07 07:31:44;;;;;;;2.65;1.50;;;;;;;13.78;54.89;97836.44;263247;1099;114634;-87
2021/05/07 07:36:48;;;;;;;3.78;1.83;;;;;;;13.81;55.44;97837.99;263051;1104;114733;-80
2021/05/07 07:41:51;;;;;;;3.53;1.80;;;;;;;13.89;55.86;97822.05;262960;1100;114978;-78
2021/05/07 07:46:55;;;;;;;4.35;1.63;;;;;;;13.96;55.73;97832.04;262994;1104;115747;-84
2021/05/07 07:52:00;;;;;;;5.08;1.55;;;;;;;13.96;54.83;97833.88;263126;1101;114679;-80
2021/05/07 07:57:03;;;;;;;2.35;1.63;;;;;;;13.95;54.69;97833.00;263247;1104;114997;-85
2021/05/07 08:02:06;;;;;;;5.50;2.00;;;;;;;14.02;54.87;97833.27;262774;1100;115220;-79
2021/05/07 08:07:12;;;;;;;3.63;1.60;;;;;;;14.12;54.70;97835.91;263297;1104;115413;-78
2021/05/07 08:12:15;;;;;;;3.70;1.50;;;;;;;14.19;54.55;97871.78;262879;1100;116865;-79
2021/05/07 08:17:18;;;;;;;3.88;1.40;;;;;;;14.24;54.28;97866.02;262792;1104;115300;-77
2021/05/07 08:22:22;;;;;;;4.03;1.40;;;;;;;14.26;54.03;97866.69;262905;1100;114721;-79
2021/05/07 08:27:25;;;;;;;2.53;1.25;;;;;;;14.30;53.68;97868.08;262881;1104;114851;-86
2021/05/07 08:32:29;;;;;;;1.90;1.28;;;;;;;14.28;53.78;97889.65;262807;1100;115092;-77
2021/05/07 08:37:35;;;;;;;3.03;1.28;;;;;;;14.33;53.36;97878.48;262447;1105;115104;-80
2021/05/07 08:42:39;;;;;;;3.73;1.28;;;;;;;14.37;53.04;97899.48;262666;1101;114728;-80
2021/05/07 08:47:43;;;;;;;5.05;1.30;;;;;;;14.44;52.97;97867.61;262957;1104;115005;-82
2021/05/07 08:52:47;;;;;;;2.70;1.38;;;;;;;14.54;53.29;97843.51;263478;1099;114600;-82
2021/05/07 08:57:49;;;;;;;2.00;1.30;;;;;;;14.57;52.79;97849.41;263560;1104;114950;-81
2021/05/07 09:03:04;;;;;;;7.83;1.45;;;;;;;14.56;53.05;97863.77;263449;1100;114537;-77
2021/05/07 09:08:09;;;;;;;3.20;1.50;;;;;;;14.55;52.45;97879.98;262743;1104;114758;-72
2021/05/07 09:13:19;;;;;;;6.93;1.58;;;;;;;14.57;52.50;97880.66;262617;1102;115052;-79
2021/05/07 09:18:22;;;;;;;3.00;1.40;;;;;;;14.56;52.63;97897.73;262765;1104;114882;-78
2021/05/07 09:23:25;;;;;;;3.08;1.20;;;;;;;14.55;52.06;97906.77;262929;1100;114759;-85
2021/05/07 09:28:28;;;;;;;4.58;1.30;;;;;;;14.50;51.89;97909.86;262805;1104;115336;-80
2021/05/07 09:33:31;;;;;;;1.73;1.18;;;;;;;14.42;51.52;97897.19;262976;1100;114683;-81
2021/05/07 09:38:34;;;;;;;3.80;1.38;;;;;;;14.47;52.15;97901.25;262693;1105;114747;-80
2021/05/07 09:43:38;;;;;;;3.25;1.20;;;;;;;14.61;52.31;97901.66;262907;1101;114846;-81
2021/05/07 09:48:42;;;;;;;4.73;1.83;;;;;;;14.79;52.29;97893.66;262745;1104;114704;-80
2021/05/07 09:53:45;;;;;;;2.98;1.08;;;;;;;14.92;51.18;97908.55;262760;1100;114754;-79
2021/05/07 09:58:48;;;;;;;2.38;1.00;;;;;;;14.85;50.57;97933.25;262825;1104;114707;-82
2021/05/07 10:03:55;;;;;;;1.75;1.10;;;;;;;14.89;50.74;97923.08;263307;1099;115024;-80
2021/05/07 10:08:58;;;;;;;1.50;0.93;;;;;;;14.88;50.93;97924.91;263042;1104;114768;-80
2021/05/07 10:14:11;;;;;;;1.78;0.85;;;;;;;15.03;50.25;97922.56;262926;1100;114797;-81
2021/05/07 10:19:15;;;;;;;2.77;0.70;;;;;;;15.27;50.02;97919.29;263267;1100;114877;-81
2021/05/07 10:24:19;;;;;;;2.75;1.20;;;;;;;15.53;49.39;97922.06;262667;1100;114832;-82
2021/05/07 10:29:28;;;;;;;3.13;1.15;;;;;;;15.64;49.04;97923.66;262812;1104;115809;-71
2021/05/07 10:34:43;;;;;;;2.38;0.80;;;;;;;15.75;48.74;97910.02;262644;1100;114949;-72
2021/05/07 10:39:54;;;;;;;2.10;0.88;;;;;;;16.03;48.97;97909.89;262605;1105;114695;-72
2021/05/07 10:44:57;;;;;;;1.75;0.65;;;;;;;16.22;48.25;97908.85;263065;1099;114852;-73
2021/05/07 10:50:12;;;;;;;1.13;0.60;;;;;;;16.30;47.69;97919.63;262931;1104;114611;-72
2021/05/07 10:55:15;;;;;;;0.98;0.68;;;;;;;16.40;47.93;97930.26;262928;1100;114880;-72
2021/05/07 11:00:18;;;;;;;2.05;0.68;;;;;;;16.55;47.28;97932.20;262579;1105;114766;-79
2021/05/07 11:05:49;;;;;;;1.75;0.70;;;;;;;16.71;46.72;97918.02;262623;1100;115278;-72
2021/05/07 11:10:54;;;;;;;1.78;0.83;;;;;;;16.93;46.81;97916.60;262535;1105;114652;-73
2021/05/07 11:15:59;;;;;;;1.45;1.00;;;;;;;16.74;46.62;97943.69;262965;1102;114704;-82
2021/05/07 11:21:13;;;;;;;0.70;0.60;;;;;;;16.30;46.08;97976.01;262635;1105;114823;-80
2021/05/07 11:26:37;;;;;;;3.78;1.10;;;;;;;15.96;46.59;97976.77;262871;1100;114818;-73
2021/05/07 11:31:40;;;;;;;1.80;0.70;;;;;;;16.06;47.02;97958.73;263173;1104;115390;-73
2021/05/07 11:36:43;;;;;;;1.83;0.63;;;;;;;16.44;46.86;97932.48;263083;1100;114870;-74
2021/05/07 11:41:46;;;;;;;1.45;0.60;;;;;;;16.77;46.04;97957.68;263166;1100;114836;-74
2021/05/07 11:47:05;;;;;;;2.48;0.60;;;;;;;17.00;45.19;97908.73;262190;1101;115166;-82
2021/05/07 11:52:10;;;;;;;1.28;0.68;;;;;;;17.26;45.07;97925.61;263191;1104;114654;-80
2021/05/07 11:57:21;;;;;;;1.40;0.60;;;;;;;17.55;44.26;97929.67;263448;1099;114596;-81
2021/05/07 12:02:30;;;;;;;5.63;0.83;;;;;;;17.70;43.81;97935.25;262819;1104;115462;-82
2021/05/07 12:07:39;;;;;;;4.48;0.85;;;;;;;17.59;43.55;97946.32;262705;1103;115193;-82
2021/05/07 12:12:43;;;;;;;2.88;1.45;;;;;;;17.10;44.45;97960.51;262641;1105;114551;-75
2021/05/07 12:17:51;;;;;;;3.55;1.50;;;;;;;16.64;44.73;97978.73;262791;1100;115013;-82
2021/05/07 12:22:56;;;;;;;2.70;1.80;;;;;;;16.58;45.11;97973.19;262655;1104;114570;-81
2021/05/07 12:27:59;;;;;;;4.40;1.30;;;;;;;16.82;45.59;97984.09;263357;1100;114954;-74
2021/05/07 12:33:12;;;;;;;3.73;1.45;;;;;;;17.14;45.39;97994.13;263406;1104;114944;-73
2021/05/07 12:38:16;;;;;;;1.95;1.35;;;;;;;17.38;44.78;98000.59;262743;1100;114624;-81
2021/05/07 12:43:19;;;;;;;1.60;1.00;;;;;;;17.66;44.81;98012.78;262696;1104;115665;-73
2021/05/07 12:48:23;;;;;;;3.35;1.25;;;;;;;17.80;44.61;97997.86;262727;1102;114914;-80
2021/05/07 12:53:26;;;;;;;6.40;0.90;;;;;;;17.71;44.25;98002.34;263172;1104;115707;-81
2021/05/07 12:58:29;;;;;;;2.10;1.00;;;;;;;17.80;44.21;97991.61;263172;1100;114819;-81
2021/05/07 13:03:31;;;;;;;3.53;1.20;;;;;;;17.87;43.52;97995.34;262924;1104;116392;-82
2021/05/07 13:08:34;;;;;;;1.60;1.10;;;;;;;17.75;43.15;97992.09;263127;1102;114651;-80
2021/05/07 13:13:39;;;;;;;2.70;1.15;;;;;;;17.96;43.22;97997.02;262893;1104;114735;-81
2021/05/07 13:18:42;;;;;;;2.00;1.23;;;;;;;17.85;42.14;97994.66;262804;1100;114848;-80
2021/05/07 13:23:44;;;;;;;2.33;1.30;;;;;;;18.24;42.72;97986.77;262747;1104;115289;-80
2021/05/07 13:28:49;;;;;;;2.30;1.40;;;;;;;18.47;41.93;97997.66;262838;1100;115256;-79
2021/05/07 13:33:52;;;;;;;3.33;1.13;;;;;;;18.27;41.50;98013.34;263162;1104;114834;-71
2021/05/07 13:38:57;;;;;;;3.18;1.40;;;;;;;18.04;41.03;98026.66;262793;1100;115202;-73
2021/05/07 13:44:01;;;;;;;5.10;1.60;;;;;;;17.70;41.04;98035.66;262804;1104;115093;-73
2021/05/07 13:49:03;;;;;;;3.03;1.30;;;;;;;17.47;41.36;98024.66;263019;1100;114832;-73
2021/05/07 13:54:06;;;;;;;4.15;1.50;;;;;;;17.43;41.36;98023.31;263437;1104;114699;-72
2021/05/07 13:59:09;;;;;;;3.83;1.60;;;;;;;17.89;42.22;98029.14;263026;1100;114693;-80
2021/05/07 14:04:13;;;;;;;6.18;2.30;;;;;;;17.93;41.65;98052.05;263309;1104;115361;-77
2021/05/07 14:09:15;;;;;;;3.78;1.93;;;;;;;17.51;41.51;98073.59;262940;1099;115283;-78
2021/05/07 14:14:20;;;;;;;8.60;1.40;;;;;;;17.45;41.79;98074.24;263400;1104;114687;-78
2021/05/07 14:19:23;;;;;;;4.33;2.38;;;;;;;17.60;42.38;98067.25;262934;1100;114680;-83
2021/05/07 14:24:26;;;;;;;3.03;1.50;;;;;;;17.55;42.05;98068.73;262714;1105;115359;-72
2021/05/07 14:29:29;;;;;;;2.70;1.50;;;;;;;17.41;42.30;98080.95;262636;1101;115207;-79
2021/05/07 14:34:32;;;;;;;2.43;1.85;;;;;;;17.35;42.30;98098.57;263007;1104;114724;-80
2021/05/07 14:39:36;;;;;;;6.15;1.80;;;;;;;17.28;42.36;98089.47;262738;1100;114756;-79
2021/05/07 14:44:38;;;;;;;2.58;1.28;;;;;;;17.16;42.52;98088.92;262757;1104;115388;-72
2021/05/07 14:49:41;;;;;;;4.83;1.80;;;;;;;17.17;42.44;98095.97;263106;1099;114989;-73
2021/05/07 14:54:44;;;;;;;3.48;1.70;;;;;;;16.95;41.67;98104.56;263318;1104;115201;-82
2021/05/07 14:59:48;;;;;;;4.45;1.73;;;;;;;16.66;41.79;98086.05;262692;1101;115219;-80
2021/05/07 15:04:51;;;;;;;3.08;1.80;;;;;;;16.68;41.94;98089.44;262829;1104;114995;-73
2021/05/07 15:09:54;;;;;;;3.75;2.13;;;;;;;16.53;41.75;98105.25;263184;1100;114797;-73
2021/05/07 15:14:57;;;;;;;3.95;1.90;;;;;;;16.49;41.87;98088.61;263494;1104;114833;-72
2021/05/07 15:20:01;;;;;;;3.85;2.00;;;;;;;16.20;41.52;98088.02;263075;1101;115640;-81
2021/05/07 15:25:05;;;;;;;6.18;2.35;;;;;;;15.90;41.78;98089.27;262950;1104;115066;-73
2021/05/07 15:30:08;;;;;;;5.40;2.50;;;;;;;15.70;41.95;98088.55;262998;1100;114586;-73
2021/05/07 15:35:13;;;;;;;3.95;2.60;;;;;;;15.48;41.90;98093.27;263211;1104;114800;-71
2021/05/07 15:40:17;;;;;;;6.08;2.48;;;;;;;15.30;42.27;98108.48;262828;1100;114853;-73
2021/05/07 15:45:27;;;;;;;5.50;2.03;;;;;;;15.11;42.09;98125.47;262680;1105;114747;-73
2021/05/07 15:51:34;;;;;;;3.23;2.05;;;;;;;14.95;42.22;98130.61;263180;1099;114997;-72
2021/05/07 15:56:39;;;;;;;3.90;1.63;;;;;;;14.64;41.89;98173.66;263359;1100;114734;-72
2021/05/07 16:01:49;;;;;;;3.20;1.63;;;;;;;14.42;43.22;98194.33;262898;1098;114970;-73
2021/05/07 16:06:58;;;;;;;2.33;1.60;;;;;;;13.98;43.78;98197.52;262816;1104;114742;-72
2021/05/07 16:12:01;;;;;;;2.53;1.43;;;;;;;13.62;45.44;98213.15;263134;1099;114598;-80
2021/05/07 16:17:06;;;;;;;3.70;2.53;;;;;;;13.25;45.76;98227.06;262896;1100;114709;-80
2021/05/07 16:22:09;;;;;;;3.30;2.05;;;;;;;12.94;46.33;98250.14;263054;1099;114787;-80
2021/05/07 16:27:12;;;;;;;3.90;2.08;;;;;;;12.66;47.36;98275.64;263344;1104;115582;-80
2021/05/07 16:32:17;;;;;;;2.95;2.03;;;;;;;12.45;46.82;98289.78;263211;1100;114602;-80
2021/05/07 16:37:24;;;;;;;3.45;2.15;;;;;;;12.30;47.11;98307.05;262901;1104;115124;-80
2021/05/07 16:42:27;;;;;;;3.60;2.73;;;;;;;12.20;48.01;98300.77;263193;1100;114926;-80
2021/05/07 16:47:30;;;;;;;4.18;2.45;;;;;;;12.13;48.16;98320.91;262849;1104;115975;-81
2021/05/07 16:52:34;;;;;;;5.08;3.35;;;;;;;12.02;48.24;98335.06;263182;1099;114717;-81
2021/05/07 16:57:36;;;;;;;7.45;3.80;;;;;;;11.99;49.19;98336.18;262879;1104;114563;-80
2021/05/07 17:02:39;;;;;;;7.50;4.10;;;;;;;11.96;49.47;98344.42;263275;1099;115536;-80
2021/05/07 17:07:42;;;;;;;6.88;3.53;;;;;;;11.92;49.88;98332.30;263217;1104;116115;-79
2021/05/07 17:12:45;;;;;;;5.15;3.35;;;;;;;11.92;50.20;98334.09;262573;1100;115590;-79
2021/05/07 17:17:49;;;;;;;5.03;3.63;;;;;;;11.92;49.88;98328.77;262949;1104;115407;-80
2021/05/07 17:22:52;;;;;;;5.78;3.48;;;;;;;11.89;49.85;98347.66;262869;1099;114566;-80
2021/05/07 17:27:55;;;;;;;5.05;3.48;;;;;;;11.86;50.57;98356.78;263089;1104;115034;-81
2021/05/07 17:32:59;;;;;;;5.40;3.53;;;;;;;11.90;50.34;98368.05;262880;1097;115297;-81
2021/05/07 17:38:02;;;;;;;6.63;3.70;;;;;;;11.92;50.63;98366.97;262716;1104;115864;-80
2021/05/07 17:43:08;;;;;;;6.55;4.28;;;;;;;11.94;50.09;98382.83;262784;1100;115161;-80
2021/05/07 17:48:11;;;;;;;7.18;4.00;;;;;;;11.93;50.52;98395.31;263007;1104;114889;-79
2021/05/07 17:53:14;;;;;;;10.50;4.83;;;;;;;11.93;50.58;98389.98;263039;1100;114726;-80
2021/05/07 17:58:18;;;;;;;7.53;5.45;;;;;;;11.86;50.78;98404.77;262698;1104;115091;-79
2021/05/07 18:03:20;;;;;;;11.25;5.90;;;;;;;11.82;50.88;98416.61;262612;1100;114925;-80
2021/05/07 18:08:23;;;;;;;11.25;7.48;;;;;;;11.81;50.51;98406.89;263228;1104;114802;-80
2021/05/07 18:13:27;;;;;;;9.17;5.93;;;;;;;11.79;50.46;98417.69;263231;1100;114745;-79
2021/05/07 18:18:31;;;;;;;8.53;6.43;;;;;;;11.70;51.30;98428.20;262923;1100;115342;-80
2021/05/07 18:23:34;;;;;;;10.88;6.03;;;;;;;11.63;51.06;98429.64;262781;1099;115003;-80
2021/05/07 18:28:37;;;;;;;11.63;6.83;;;;;;;11.58;51.15;98441.50;263248;1104;114920;-80
2021/05/07 18:33:40;;;;;;;10.40;6.40;;;;;;;11.55;50.69;98454.21;263299;1100;114714;-79
2021/05/07 18:38:45;;;;;;;;;;;;;;;11.55;50.95;98468.38;263129;1104;114777;-79
2021/05/07 18:43:50;;;;;;;10.30;6.38;;;;;;;11.50;51.23;98483.85;262778;1100;101815;-80
2021/05/07 18:48:53;;;;;;;;;;;;;;;11.48;51.50;98506.23;262551;1104;114903;-80
2021/05/07 18:54:01;;;;;;;7.73;5.03;;;;;;;11.48;50.92;98520.44;263033;1100;101055;-79
2021/05/07 18:59:04;;;;;;;10.90;5.63;;;;;;;11.46;51.20;98550.81;263100;1104;114691;-79
2021/05/07 19:04:07;;;;;;;8.57;5.97;;;;;;;11.45;51.29;98565.96;263253;1100;212234;-79
2021/05/07 19:09:10;;;;;;;8.85;6.23;;;;;;;11.38;51.24;98575.37;263096;1104;115029;-79
2021/05/07 19:14:13;;;;;;;8.50;5.58;;;;;;;11.30;51.41;98586.55;262784;1100;115441;-79
2021/05/07 19:19:32;;;;;;;12.88;6.13;;;;;;;11.26;51.22;98592.23;262645;1104;114902;-79
2021/05/07 19:24:36;;;;;;;7.73;5.10;;;;;;;11.16;51.28;98607.16;262582;1100;115414;-80
2021/05/07 19:29:40;;;;;;;6.33;4.70;;;;;;;11.09;51.47;98622.72;262892;1104;116215;-79
2021/05/07 19:34:46;;;;;;;7.35;3.78;;;;;;;11.04;50.91;98630.17;262740;1100;114924;-80
2021/05/07 19:39:50;;;;;;;6.73;3.50;;;;;;;10.86;50.42;98638.49;263121;1104;114886;-74
2021/05/07 19:44:55;;;;;;;5.50;2.93;;;;;;;10.75;50.36;98653.52;262460;1100;115253;-74
2021/05/07 19:49:58;;;;;;;4.48;3.00;;;;;;;10.62;50.41;98670.31;262733;1104;115262;-73
2021/05/07 19:55:02;;;;;;;6.00;2.90;;;;;;;10.49;50.21;98661.45;262783;1099;114914;-72
2021/05/07 20:00:06;;;;;;;5.93;2.68;;;;;;;10.35;49.88;98670.38;263340;1104;114776;-72
2021/05/07 20:05:14;;;;;;;6.83;2.83;;;;;;;10.22;49.83;98681.89;263329;1100;212228;-73
2021/05/07 20:10:16;;;;;;;4.88;2.68;;;;;;;10.10;49.12;98695.05;262600;1104;115252;-72
2021/05/07 20:15:19;;;;;;;6.43;3.08;;;;;;;10.02;49.55;98710.67;262729;1100;115130;-72
2021/05/07 20:20:22;;;;;;;5.33;2.78;;;;;;;9.94;49.30;98715.61;263129;1105;114806;-72
2021/05/07 20:25:25;;;;;;;7.95;3.53;;;;;;;9.84;49.59;98712.69;262945;1099;114545;-72
2021/05/07 20:30:28;;;;;;;7.28;3.30;;;;;;;9.74;49.41;98729.33;262669;1105;114852;-73
2021/05/07 20:35:31;;;;;;;6.38;3.93;;;;;;;9.63;49.54;98733.52;263190;1099;114744;-75
2021/05/07 20:40:34;;;;;;;5.63;3.65;;;;;;;9.58;49.52;98740.05;263038;1104;115226;-78
2021/05/07 20:45:41;;;;;;;7.13;3.58;;;;;;;9.56;49.86;98749.95;262720;1105;115161;-78
2021/05/07 20:50:44;;;;;;;7.65;3.85;;;;;;;9.50;49.68;98767.11;262823;1099;117222;-78
2021/05/07 20:55:48;;;;;;;7.48;3.90;;;;;;;9.43;49.75;98779.06;263057;1100;114861;-77
2021/05/07 21:00:51;;;;;;;8.08;3.95;;;;;;;9.35;49.46;98782.20;263437;1100;114684;-77
2021/05/07 21:05:56;;;;;;;6.80;3.50;;;;;;;9.32;49.56;98794.81;263126;1104;114417;-76
2021/05/07 21:11:00;;;;;;;7.08;3.88;;;;;;;9.24;49.65;98793.47;263453;1099;114519;-76
2021/05/07 21:16:03;;;;;;;5.80;3.50;;;;;;;9.18;49.22;98806.27;263118;1104;114287;-78
2021/05/07 21:21:06;;;;;;;5.85;2.60;;;;;;;9.12;49.51;98818.09;262872;1101;115341;-78
2021/05/07 21:26:09;;;;;;;7.65;2.98;;;;;;;9.07;49.55;98827.27;263145;1104;115271;-78
2021/05/07 21:31:12;;;;;;;5.45;3.50;;;;;;;9.09;50.07;98847.47;263295;1104;114469;-78
2021/05/07 21:36:15;;;;;;;3.88;2.60;;;;;;;9.09;49.46;98851.94;263008;1104;114876;-80
2021/05/07 21:41:18;;;;;;;7.63;2.73;;;;;;;9.07;49.83;98856.47;262798;1102;114734;-83
2021/05/07 21:46:21;;;;;;;6.58;2.80;;;;;;;9.06;49.88;98863.58;262804;1104;114369;-79
2021/05/07 21:51:24;;;;;;;3.78;2.80;;;;;;;9.04;49.88;98872.60;263439;1099;114425;-80
2021/05/07 21:56:26;;;;;;;5.35;2.90;;;;;;;9.03;49.65;98879.69;263401;1104;114628;-78
2021/05/07 22:01:33;;;;;;;5.90;3.10;;;;;;;9.01;49.94;98897.52;262890;1100;114396;-77
2021/05/07 22:06:36;;;;;;;5.55;3.18;;;;;;;8.94;49.59;98901.47;262751;1103;114428;-77
2021/05/07 22:11:39;;;;;;;4.55;3.10;;;;;;;8.89;49.62;98899.06;263082;1100;114356;-77
2021/05/07 22:16:41;;;;;;;7.45;3.28;;;;;;;8.81;50.06;98911.07;263481;1104;114623;-75
2021/05/07 22:21:45;;;;;;;4.87;2.80;;;;;;;8.73;49.60;98912.37;262970;1100;114556;-78
2021/05/07 22:26:48;;;;;;;5.28;3.40;;;;;;;8.67;49.70;98931.27;262821;1105;114840;-76
2021/05/07 22:31:51;;;;;;;8.98;3.43;;;;;;;8.58;50.40;98936.23;263356;1099;114507;-77
2021/05/07 22:36:54;;;;;;;6.93;3.88;;;;;;;8.47;50.25;98937.69;263430;1104;114782;-77
2021/05/07 22:41:57;;;;;;;6.88;3.75;;;;;;;8.42;50.38;98941.52;263108;1100;114346;-79
2021/05/07 22:47:00;;;;;;;5.50;3.78;;;;;;;8.40;50.78;98946.92;263460;1104;114368;-80
2021/05/07 22:52:03;;;;;;;7.10;4.10;;;;;;;8.37;50.30;98960.31;262908;1100;115016;-74
2021/05/07 22:57:06;;;;;;;5.50;3.73;;;;;;;8.34;50.60;98960.47;262872;1104;114480;-74
2021/05/07 23:02:09;;;;;;;7.48;4.25;;;;;;;8.32;50.85;98972.09;263241;1099;114263;-74
2021/05/07 23:07:13;;;;;;;7.23;4.20;;;;;;;8.27;50.26;98970.55;263391;1104;114481;-75
2021/05/07 23:12:16;;;;;;;6.68;4.00;;;;;;;8.28;50.98;98980.20;263175;1100;114557;-75
2021/05/07 23:17:19;;;;;;;7.23;3.88;;;;;;;8.27;50.96;98983.80;263319;1104;114470;-76
2021/05/07 23:22:22;;;;;;;6.98;4.10;;;;;;;8.19;50.46;98985.17;263416;1099;114320;-75